createdAt,value
2018-04-02T00:00:46.873Z,101140.41
2018-04-02T00:03:13.067Z,101145.20
2018-04-02T00:05:39.533Z,101139.95
2018-04-02T00:08:05.755Z,101133.41
2018-04-02T00:10:31.914Z,101140.42
2018-04-02T00:12:58.107Z,101140.42
2018-04-02T00:15:24.698Z,101141.27
2018-04-02T00:17:50.853Z,101129.06
2018-04-02T00:20:17.016Z,101133.50
2018-04-02T00:22:43.197Z,101134.81
2018-04-02T00:25:09.421Z,101136.98
2018-04-02T00:27:35.891Z,101139.20
2018-04-02T00:30:02.116Z,101137.89
2018-04-02T00:32:28.766Z,101140.52
2018-04-02T00:34:54.959Z,101138.76
2018-04-02T00:37:21.110Z,101139.22
2018-04-02T00:39:47.402Z,101141.83
2018-04-02T00:42:13.571Z,101139.64
2018-04-02T00:44:39.767Z,101139.61
2018-04-02T00:47:05.929Z,101142.70
2018-04-02T00:49:32.144Z,101144.03
2018-04-02T00:51:58.315Z,101149.33
2018-04-02T00:54:24.482Z,101146.70
2018-04-02T00:56:50.672Z,101151.48
2018-04-02T00:59:17.172Z,101150.18
2018-04-02T01:01:43.331Z,101144.96
2018-04-02T01:04:09.544Z,101151.48
2018-04-02T01:06:35.756Z,101148.02
2018-04-02T01:09:01.929Z,101148.89
2018-04-02T01:11:28.147Z,101151.97
2018-04-02T01:13:54.314Z,101148.53
2018-04-02T01:16:20.757Z,101146.78
2018-04-02T01:18:47.342Z,101144.56
2018-04-02T01:21:23.451Z,101139.78
2018-04-02T01:23:49.639Z,101133.30
2018-04-02T01:26:15.848Z,101144.64
2018-04-02T01:28:42.348Z,101145.11
2018-04-02T01:31:08.665Z,101147.73
2018-04-02T01:33:34.869Z,101136.80
2018-04-02T01:36:01.440Z,101141.63
2018-04-02T01:38:27.597Z,101145.97
2018-04-02T01:40:53.865Z,101136.31
2018-04-02T01:43:20.031Z,101142.02
2018-04-02T01:45:46.198Z,101139.00
2018-04-02T01:48:12.464Z,101141.63
2018-04-02T01:50:38.624Z,101143.77
2018-04-02T01:53:04.815Z,101152.13
2018-04-02T01:55:30.965Z,101143.77
2018-04-02T01:57:57.493Z,101144.20
2018-04-02T02:00:23.650Z,101141.56
2018-04-02T02:02:49.834Z,101136.33
2018-04-02T02:05:16.077Z,101142.02
2018-04-02T02:07:42.291Z,101137.21
2018-04-02T02:10:08.820Z,101136.80
2018-04-02T02:12:35.323Z,101136.85
2018-04-02T02:15:01.488Z,101137.70
2018-04-02T02:17:27.739Z,101136.41
2018-04-02T02:19:53.893Z,101135.56
2018-04-02T02:22:20.502Z,101126.80
2018-04-02T02:24:46.662Z,101132.02
2018-04-02T02:27:12.834Z,101131.17
2018-04-02T02:29:39.024Z,101126.39
2018-04-02T02:32:05.717Z,101130.30
2018-04-02T02:34:31.971Z,101123.28
2018-04-02T02:36:58.121Z,101127.23
2018-04-02T02:39:24.332Z,101122.01
2018-04-02T02:41:50.513Z,101122.48
2018-04-02T02:44:16.739Z,101114.55
2018-04-02T02:46:43.286Z,101116.31
2018-04-02T02:49:09.438Z,101114.97
2018-04-02T02:51:35.945Z,101118.06
2018-04-02T02:54:02.089Z,101116.72
2018-04-02T02:56:28.288Z,101118.06
2018-04-02T02:58:54.451Z,101114.97
2018-04-02T03:01:20.631Z,101114.09
2018-04-02T03:03:47.049Z,101119.75
2018-04-02T03:06:13.233Z,101114.09
2018-04-02T03:08:39.422Z,101115.88
2018-04-02T03:11:05.569Z,101117.20
2018-04-02T03:13:31.811Z,101120.21
2018-04-02T03:15:58.237Z,101118.91
2018-04-02T03:18:24.431Z,101115.81
2018-04-02T03:20:50.601Z,101109.27
2018-04-02T03:23:16.808Z,101108.41
2018-04-02T03:25:42.975Z,101108.00
2018-04-02T03:28:09.201Z,101103.19
2018-04-02T03:30:35.698Z,101103.17
2018-04-02T03:33:01.881Z,101112.81
2018-04-02T03:35:28.112Z,101106.28
2018-04-02T03:37:54.591Z,101109.77
2018-04-02T03:40:20.808Z,101100.55
2018-04-02T03:42:47.251Z,101104.05
2018-04-02T03:45:13.415Z,101101.83
2018-04-02T03:47:39.606Z,101098.80
2018-04-02T03:50:05.758Z,101097.52
2018-04-02T03:52:31.975Z,101094.02
2018-04-02T03:54:58.143Z,101103.71
2018-04-02T03:57:24.617Z,101094.48
2018-04-02T03:59:51.167Z,101100.16
2018-04-02T04:02:17.383Z,101098.00
2018-04-02T04:04:43.542Z,101093.12
2018-04-02T04:07:09.711Z,101095.30
2018-04-02T04:09:35.902Z,101097.92
2018-04-02T04:12:02.053Z,101096.20
2018-04-02T04:14:28.527Z,101101.47
2018-04-02T04:16:54.981Z,101103.24
2018-04-02T04:19:21.209Z,101096.25
2018-04-02T04:21:47.423Z,101101.49
2018-04-02T04:24:13.701Z,101104.09
2018-04-02T04:26:39.926Z,101104.94
2018-04-02T04:29:06.102Z,101107.23
2018-04-02T04:31:32.292Z,101108.53
2018-04-02T04:33:58.578Z,101103.71
2018-04-02T04:36:24.829Z,101106.74
2018-04-02T04:38:51.002Z,101109.31
2018-04-02T04:41:17.562Z,101111.94
2018-04-02T04:43:43.724Z,101111.94
2018-04-02T04:46:09.934Z,101115.88
2018-04-02T04:48:36.274Z,101112.80
2018-04-02T04:51:02.765Z,101110.19
2018-04-02T04:53:28.982Z,101110.63
2018-04-02T04:55:55.203Z,101113.66
2018-04-02T04:58:21.378Z,101108.86
2018-04-02T05:00:47.570Z,101109.27
2018-04-02T05:03:14.118Z,101113.22
2018-04-02T05:05:40.363Z,101107.13
2018-04-02T05:08:06.564Z,101104.09
2018-04-02T05:10:33.118Z,101103.66
2018-04-02T05:12:59.367Z,101104.09
2018-04-02T05:18:17.634Z,101106.66
2018-04-02T05:20:43.804Z,101103.14
2018-04-02T05:23:09.971Z,101105.77
2018-04-02T05:25:36.482Z,101110.50
2018-04-02T05:28:02.651Z,101104.73
2018-04-02T05:30:28.849Z,101106.88
2018-04-02T05:33:02.386Z,101095.90
2018-04-02T05:35:28.572Z,101104.09
2018-04-02T05:37:54.993Z,101105.80
2018-04-02T05:40:21.216Z,101107.06
2018-04-02T05:42:47.417Z,101100.94
2018-04-02T05:45:13.646Z,101106.10
2018-04-02T05:47:39.813Z,101104.71
2018-04-02T05:50:06.011Z,101105.13
2018-04-02T05:52:32.217Z,101104.25
2018-04-02T05:54:58.370Z,101106.88
2018-04-02T05:57:24.827Z,101113.38
2018-04-02T05:59:51.011Z,101109.91
2018-04-02T06:02:17.182Z,101109.91
2018-04-02T06:04:44.013Z,101104.33
2018-04-02T06:07:10.183Z,101111.68
2018-04-02T06:09:36.410Z,101122.56
2018-04-02T06:12:02.593Z,101119.94
2018-04-02T06:14:28.769Z,101117.31
2018-04-02T06:16:55.005Z,101117.31
2018-04-02T06:19:21.213Z,101115.13
2018-04-02T06:21:47.462Z,101117.70
2018-04-02T06:24:13.639Z,101117.23
2018-04-02T06:26:40.069Z,101110.16
2018-04-02T06:29:06.243Z,101115.81
2018-04-02T06:31:32.484Z,101118.41
2018-04-02T06:33:58.757Z,101117.08
2018-04-02T06:36:24.923Z,101117.45
2018-04-02T06:38:51.115Z,101110.40
2018-04-02T06:41:17.289Z,101111.25
2018-04-02T06:43:43.490Z,101119.97
2018-04-02T06:46:09.634Z,101118.20
2018-04-02T06:48:36.228Z,101116.80
2018-04-02T06:51:02.546Z,101113.69
2018-04-02T06:53:28.762Z,101118.00
2018-04-02T06:55:54.994Z,101111.00
2018-04-02T06:58:21.242Z,101113.22
2018-04-02T07:00:47.496Z,101123.34
2018-04-02T07:03:13.702Z,101129.47
2018-04-02T07:05:39.909Z,101120.73
2018-04-02T07:08:06.157Z,101122.08
2018-04-02T07:10:32.347Z,101120.33
2018-04-02T07:12:58.517Z,101120.77
2018-04-02T07:15:25.047Z,101122.46
2018-04-02T07:17:51.585Z,101127.74
2018-04-02T07:20:17.771Z,101127.27
2018-04-02T07:22:44.027Z,101131.62
2018-04-02T07:25:10.472Z,101124.16
2018-04-02T07:27:36.671Z,101125.44
2018-04-02T07:30:02.922Z,101123.28
2018-04-02T07:32:29.143Z,101124.53
2018-04-02T07:34:55.528Z,101122.70
2018-04-02T07:37:21.958Z,101122.20
2018-04-02T07:39:48.158Z,101120.02
2018-04-02T07:42:14.435Z,101128.77
2018-04-02T07:44:40.628Z,101122.61
2018-04-02T07:47:06.791Z,101125.21
2018-04-02T07:49:33.380Z,101126.50
2018-04-02T07:51:59.590Z,101125.56
2018-04-02T07:54:25.767Z,101122.91
2018-04-02T07:56:51.953Z,101128.53
2018-04-02T07:59:18.129Z,101126.73
2018-04-02T08:01:44.308Z,101130.20
2018-04-02T08:04:10.849Z,101123.95
2018-04-02T08:06:37.379Z,101122.14
2018-04-02T08:09:03.700Z,101115.14
2018-04-02T08:11:29.911Z,101124.27
2018-04-02T08:13:56.120Z,101119.48
2018-04-02T08:16:22.316Z,101123.40
2018-04-02T08:18:48.828Z,101118.49
2018-04-02T08:21:15.019Z,101111.84
2018-04-02T08:23:41.583Z,101116.56
2018-04-02T08:26:07.745Z,101116.53
2018-04-02T08:28:33.963Z,101118.78
2018-04-02T08:31:00.157Z,101120.91
2018-04-02T08:33:26.320Z,101116.91
2018-04-02T08:35:52.830Z,101120.78
2018-04-02T08:38:19.019Z,101123.00
2018-04-02T08:40:45.268Z,101123.88
2018-04-02T08:43:11.818Z,101124.72
2018-04-02T08:45:38.006Z,101119.47
2018-04-02T08:48:04.259Z,101120.78
2018-04-02T08:50:30.479Z,101115.00
2018-04-02T08:52:56.717Z,101117.06
2018-04-02T08:55:22.974Z,101115.69
2018-04-02T08:57:49.495Z,101115.59
2018-04-02T09:00:15.709Z,101108.61
2018-04-02T09:02:42.155Z,101107.23
2018-04-02T09:05:08.393Z,101101.47
2018-04-02T09:07:34.558Z,101106.27
2018-04-02T09:10:00.750Z,101099.22
2018-04-02T09:12:26.946Z,101103.60
2018-04-02T09:14:53.118Z,101094.77
2018-04-02T09:17:19.327Z,101101.75
2018-04-02T09:19:45.853Z,101097.84
2018-04-02T09:22:12.400Z,101101.34
2018-04-02T09:24:39.351Z,101094.20
2018-04-02T09:27:05.606Z,101096.23
2018-04-02T09:29:31.832Z,101092.25
2018-04-02T09:31:58.041Z,101097.87
2018-04-02T09:34:24.334Z,101091.67
2018-04-02T09:36:50.579Z,101089.45
2018-04-02T09:39:16.765Z,101091.17
2018-04-02T09:41:42.971Z,101081.02
2018-04-02T09:44:09.168Z,101077.92
2018-04-02T09:46:35.699Z,101078.73
2018-04-02T09:49:01.922Z,101078.69
2018-04-02T09:51:28.474Z,101079.57
2018-04-02T09:53:55.161Z,101073.10
2018-04-02T09:56:21.351Z,101075.36
2018-04-02T09:58:47.862Z,101071.75
2018-04-02T10:01:14.132Z,101066.02
2018-04-02T10:03:40.337Z,101064.23
2018-04-02T10:06:06.659Z,101060.69
2018-04-02T10:08:33.183Z,101061.49
2018-04-02T10:10:59.738Z,101054.45
2018-04-02T10:13:26.256Z,101059.38
2018-04-02T10:15:52.459Z,101056.89
2018-04-02T10:18:18.631Z,101054.33
2018-04-02T10:20:44.914Z,101054.36
2018-04-02T10:23:11.110Z,101049.58
2018-04-02T10:25:37.316Z,101051.36
2018-04-02T10:28:03.572Z,101043.14
2018-04-02T10:30:29.778Z,101040.14
2018-04-02T10:32:55.988Z,101037.98
2018-04-02T10:35:22.169Z,101034.45
2018-04-02T10:37:48.366Z,101033.03
2018-04-02T10:40:14.521Z,101028.11
2018-04-02T10:42:40.802Z,101021.90
2018-04-02T10:45:06.979Z,101016.53
2018-04-02T10:47:33.170Z,101017.16
2018-04-02T10:49:59.673Z,101013.50
2018-04-02T10:52:25.923Z,101012.03
2018-04-02T10:54:52.441Z,101017.98
2018-04-02T10:57:18.653Z,101013.97
2018-04-02T10:59:45.291Z,101009.11
2018-04-02T11:02:11.418Z,101007.35
2018-04-02T11:04:37.729Z,101008.99
2018-04-02T11:07:03.886Z,101010.12
2018-04-02T11:09:30.073Z,101003.23
2018-04-02T11:11:56.281Z,100996.09
2018-04-02T11:14:22.503Z,100999.55
2018-04-02T11:16:48.729Z,100991.14
2018-04-02T11:19:14.917Z,100991.06
2018-04-02T11:21:41.125Z,100980.89
2018-04-02T11:24:07.331Z,100984.32
2018-04-02T11:26:33.539Z,100980.69
2018-04-02T11:29:00.517Z,100972.23
2018-04-02T11:31:26.684Z,100974.38
2018-04-02T11:33:52.849Z,100975.66
2018-04-02T11:36:19.126Z,100968.77
2018-04-02T11:38:45.303Z,100966.25
2018-04-02T11:41:11.603Z,100966.73
2018-04-02T11:43:37.819Z,100967.45
2018-04-02T11:46:04.086Z,100957.94
2018-04-02T11:48:30.344Z,100960.84
2018-04-02T11:50:56.525Z,100955.27
2018-04-02T11:53:22.703Z,100953.23
2018-04-02T11:55:49.168Z,100949.69
2018-04-02T11:58:15.337Z,100945.66
2018-04-02T12:00:42.035Z,100942.94
2018-04-02T12:03:08.241Z,100937.50
2018-04-02T12:05:34.641Z,100932.98
2018-04-02T12:08:00.839Z,100929.52
2018-04-02T12:10:27.061Z,100933.81
2018-04-02T12:12:53.299Z,100927.16
2018-04-02T12:15:19.479Z,100918.33
2018-04-02T12:17:45.648Z,100917.40
2018-04-02T12:20:11.872Z,100910.25
2018-04-02T12:22:38.111Z,100902.66
2018-04-02T12:25:04.303Z,100903.53
2018-04-02T12:27:30.547Z,100896.94
2018-04-02T12:29:56.977Z,100898.66
2018-04-02T12:32:23.222Z,100897.78
2018-04-02T12:34:49.545Z,100899.97
2018-04-02T12:37:15.750Z,100900.41
2018-04-02T12:39:41.926Z,100898.17
2018-04-02T12:42:08.143Z,100901.20
2018-04-02T12:44:35.060Z,100895.50
2018-04-02T12:47:01.259Z,100894.70
2018-04-02T12:49:27.738Z,100894.84
2018-04-02T12:51:54.270Z,100890.53
2018-04-02T12:54:20.747Z,100882.15
2018-04-02T12:56:46.938Z,100880.30
2018-04-02T12:59:13.096Z,100883.69
2018-04-02T13:01:39.288Z,100879.38
2018-04-02T13:04:05.811Z,100875.03
2018-04-02T13:06:32.040Z,100874.20
2018-04-02T13:08:58.470Z,100875.52
2018-04-02T13:11:24.668Z,100868.55
2018-04-02T13:13:50.836Z,100871.48
2018-04-02T13:16:17.101Z,100868.14
2018-04-02T13:18:43.296Z,100864.34
2018-04-02T13:21:09.467Z,100857.91
2018-04-02T13:23:35.647Z,100850.55
2018-04-02T13:26:01.829Z,100844.13
2018-04-02T13:28:28.296Z,100831.91
2018-04-02T13:30:54.458Z,100843.08
2018-04-02T13:33:20.701Z,100836.64
2018-04-02T13:35:46.941Z,100834.41
2018-04-02T13:38:13.649Z,100836.50
2018-04-02T13:40:40.156Z,100834.16
2018-04-02T13:43:06.376Z,100831.53
2018-04-02T13:45:32.668Z,100822.44
2018-04-02T13:47:58.839Z,100814.73
2018-04-02T13:50:25.077Z,100815.81
2018-04-02T13:52:51.293Z,100814.84
2018-04-02T13:55:17.467Z,100811.28
2018-04-02T13:57:43.656Z,100805.31
2018-04-02T14:00:09.851Z,100802.77
2018-04-02T14:02:36.024Z,100801.12
2018-04-02T14:05:02.594Z,100792.47
2018-04-02T14:07:28.824Z,100793.94
2018-04-02T14:09:55.044Z,100799.45
2018-04-02T14:12:21.222Z,100795.11
2018-04-02T14:14:47.437Z,100786.48
2018-04-02T14:17:13.686Z,100780.18
2018-04-02T14:19:39.857Z,100780.44
2018-04-02T14:22:06.049Z,100783.75
2018-04-02T14:24:32.297Z,100785.83
2018-04-02T14:26:58.458Z,100778.66
2018-04-02T14:29:24.907Z,100776.25
2018-04-02T14:31:51.099Z,100780.00
2018-04-02T14:34:17.585Z,100773.64
2018-04-02T14:36:43.858Z,100774.61
2018-04-02T14:39:10.072Z,100772.94
2018-04-02T14:41:36.246Z,100761.63
2018-04-02T14:44:02.472Z,100756.50
2018-04-02T14:46:28.926Z,100746.84
2018-04-02T14:48:55.093Z,100745.09
2018-04-02T14:51:21.321Z,100742.47
2018-04-02T14:53:47.569Z,100738.95
2018-04-02T14:56:13.800Z,100735.44
2018-04-02T14:58:39.934Z,100733.73
2018-04-02T15:01:06.404Z,100720.61
2018-04-02T15:03:32.570Z,100719.44
2018-04-02T15:05:59.063Z,100717.38
2018-04-02T15:08:25.312Z,100712.69
2018-04-02T15:10:51.570Z,100706.18
2018-04-02T15:13:17.811Z,100705.82
2018-04-02T15:15:44.282Z,100706.36
2018-04-02T15:18:10.456Z,100695.92
2018-04-02T15:20:36.634Z,100693.81
2018-04-02T15:23:02.841Z,100687.91
2018-04-02T15:25:29.017Z,100681.77
2018-04-02T15:27:55.251Z,100683.61
2018-04-02T15:30:21.469Z,100683.26
2018-04-02T15:32:47.648Z,100671.95
2018-04-02T15:35:13.834Z,100666.82
2018-04-02T15:37:40.037Z,100659.47
2018-04-02T15:40:06.239Z,100654.69
2018-04-02T15:42:32.495Z,100654.73
2018-04-02T15:44:58.715Z,100654.33
2018-04-02T15:47:24.938Z,100652.23
2018-04-02T15:49:51.377Z,100650.97
2018-04-02T15:52:17.588Z,100645.30
2018-04-02T15:54:43.771Z,100647.06
2018-04-02T15:57:09.972Z,100645.79
2018-04-02T15:59:36.254Z,100643.20
2018-04-02T16:02:02.446Z,100638.34
2018-04-02T16:04:28.668Z,100634.88
2018-04-02T16:06:55.175Z,100637.08
2018-04-02T16:09:21.711Z,100626.61
2018-04-02T16:11:47.929Z,100625.24
2018-04-02T16:14:14.136Z,100619.59
2018-04-02T16:16:40.356Z,100620.07
2018-04-02T16:19:06.590Z,100615.73
2018-04-02T16:21:32.753Z,100613.98
2018-04-02T16:23:59.296Z,100607.05
2018-04-02T16:26:25.817Z,100600.48
2018-04-02T16:28:52.041Z,100602.23
2018-04-02T16:31:18.313Z,100597.02
2018-04-02T16:33:44.551Z,100593.08
2018-04-02T16:36:10.723Z,100587.83
2018-04-02T16:38:37.267Z,100584.75
2018-04-02T16:41:03.487Z,100585.67
2018-04-02T16:43:30.131Z,100580.42
2018-04-02T16:45:56.297Z,100576.09
2018-04-02T16:48:22.794Z,100575.69
2018-04-02T16:50:49.334Z,100572.23
2018-04-02T16:53:15.550Z,100566.14
2018-04-02T16:55:44.862Z,100561.77
2018-04-02T16:58:11.041Z,100558.78
2018-04-02T17:00:37.518Z,100562.73
2018-04-02T17:03:04.055Z,100558.83
2018-04-02T17:05:30.485Z,100550.59
2018-04-02T17:07:56.641Z,100548.94
2018-04-02T17:10:22.817Z,100547.66
2018-04-02T17:12:49.313Z,100546.78
2018-04-02T17:15:15.496Z,100541.19
2018-04-02T17:17:41.700Z,100541.70
2018-04-02T17:20:08.393Z,100532.52
2018-04-02T17:22:34.544Z,100530.36
2018-04-02T17:25:00.719Z,100531.23
2018-04-02T17:27:26.950Z,100526.47
2018-04-02T17:29:53.184Z,100524.32
2018-04-02T17:32:19.392Z,100516.88
2018-04-02T17:34:45.600Z,100518.67
2018-04-02T17:37:11.781Z,100511.72
2018-04-02T17:39:38.047Z,100513.11
2018-04-02T17:42:04.276Z,100508.30
2018-04-02T17:44:30.433Z,100511.41
2018-04-02T17:46:56.613Z,100500.08
2018-04-02T17:49:23.111Z,100501.83
2018-04-02T17:51:49.311Z,100494.82
2018-04-02T17:54:15.492Z,100490.92
2018-04-02T17:56:42.125Z,100495.70
2018-04-02T17:59:08.336Z,100487.81
2018-04-02T18:01:34.511Z,100488.69
2018-04-02T18:04:00.767Z,100479.98
2018-04-02T18:06:26.995Z,100476.03
2018-04-02T18:08:53.210Z,100474.28
2018-04-02T18:11:19.422Z,100472.97
2018-04-02T18:13:45.610Z,100466.88
2018-04-02T18:16:11.810Z,100461.72
2018-04-02T18:18:38.360Z,100460.45
2018-04-02T18:21:04.790Z,100467.02
2018-04-02T18:23:31.320Z,100462.20
2018-04-02T18:25:57.539Z,100456.95
2018-04-02T18:28:23.719Z,100452.17
2018-04-02T18:30:49.900Z,100449.55
2018-04-02T18:33:16.447Z,100447.36
2018-04-02T18:35:42.641Z,100439.92
2018-04-02T18:38:09.216Z,100440.87
2018-04-02T18:40:35.522Z,100439.09
2018-04-02T18:43:01.766Z,100433.00
2018-04-02T18:45:27.939Z,100426.48
2018-04-02T18:47:54.468Z,100432.70
2018-04-02T18:50:20.697Z,100410.98
2018-04-02T18:52:46.989Z,100408.76
2018-04-02T18:55:13.523Z,100406.14
2018-04-02T18:57:39.681Z,100397.86
2018-04-02T19:00:06.488Z,100401.75
2018-04-02T19:02:32.676Z,100390.81
2018-04-02T19:04:58.841Z,100372.03
2018-04-02T19:07:25.067Z,100369.41
2018-04-02T19:09:51.282Z,100361.62
2018-04-02T19:12:17.729Z,100355.44
2018-04-02T19:14:43.965Z,100351.06
2018-04-02T19:17:10.125Z,100345.81
2018-04-02T19:19:36.389Z,100346.30
2018-04-02T19:22:02.614Z,100345.81
2018-04-02T19:24:28.774Z,100342.34
2018-04-02T19:26:55.114Z,100336.22
2018-04-02T19:29:21.371Z,100336.22
2018-04-02T19:31:47.907Z,100335.79
2018-04-02T19:34:14.398Z,100335.39
2018-04-02T19:36:40.835Z,100336.67
2018-04-02T19:39:07.281Z,100334.09
2018-04-02T19:41:33.464Z,100328.92
2018-04-02T19:43:59.680Z,100327.61
2018-04-02T19:46:25.860Z,100321.48
2018-04-02T19:48:52.442Z,100319.73
2018-04-02T19:51:18.617Z,100310.58
2018-04-02T19:53:44.855Z,100309.28
2018-04-02T19:56:11.093Z,100306.65
2018-04-02T19:58:37.308Z,100308.84
2018-04-02T20:01:03.565Z,100305.63
2018-04-02T20:03:29.743Z,100297.69
2018-04-02T20:05:55.919Z,100296.86
2018-04-02T20:08:22.368Z,100293.80
2018-04-02T20:10:48.548Z,100294.29
2018-04-02T20:13:14.859Z,100286.41
2018-04-02T20:15:41.421Z,100284.13
2018-04-02T20:18:07.628Z,100282.76
2018-04-02T20:20:33.799Z,100274.89
2018-04-02T20:23:00.054Z,100276.59
2018-04-02T20:25:26.239Z,100274.30
2018-04-02T20:27:52.718Z,100263.22
2018-04-02T20:30:19.006Z,100260.68
2018-04-02T20:32:45.177Z,100253.34
2018-04-02T20:35:11.419Z,100246.38
2018-04-02T20:37:37.695Z,100236.22
2018-04-02T20:40:03.903Z,100235.39
2018-04-02T20:42:30.222Z,100231.39
2018-04-02T20:44:56.469Z,100230.62
2018-04-02T20:47:22.679Z,100239.22
2018-04-02T20:49:48.846Z,100229.94
2018-04-02T20:52:15.107Z,100227.73
2018-04-02T20:54:41.476Z,100217.63
2018-04-02T20:57:07.641Z,100218.89
2018-04-02T20:59:33.803Z,100221.47
2018-04-02T21:02:00.070Z,100215.78
2018-04-02T21:04:26.355Z,100216.69
2018-04-02T21:06:52.569Z,100206.19
2018-04-02T21:09:18.791Z,100211.45
2018-04-02T21:11:45.073Z,100211.44
2018-04-02T21:14:11.302Z,100212.75
2018-04-02T21:16:37.673Z,100207.50
2018-04-02T21:19:05.068Z,100203.13
2018-04-02T21:21:31.291Z,100190.42
2018-04-02T21:23:57.786Z,100192.13
2018-04-02T21:26:23.990Z,100126.58
2018-04-02T21:28:50.809Z,100185.52
2018-04-02T21:31:17.007Z,100183.37
2018-04-02T21:33:43.273Z,100181.22
2018-04-02T21:36:09.462Z,100170.34
2018-04-02T21:38:35.671Z,100162.89
2018-04-02T21:41:01.918Z,100150.10
2018-04-02T21:43:28.323Z,100155.84
2018-04-02T21:45:54.820Z,100132.25
2018-04-02T21:48:21.087Z,100129.23
2018-04-02T21:50:47.246Z,100122.66
2018-04-02T21:53:13.727Z,100120.48
2018-04-02T21:55:39.935Z,100116.58
2018-04-02T21:58:06.159Z,100112.98
2018-04-02T22:00:32.318Z,100115.13
2018-04-02T22:02:58.514Z,100110.35
2018-04-02T22:05:24.769Z,100108.50
2018-04-02T22:07:51.087Z,100106.41
2018-04-02T22:10:17.619Z,100101.31
2018-04-02T22:12:43.882Z,100100.05
2018-04-02T22:15:10.480Z,100095.48
2018-04-02T22:17:37.080Z,100095.95
2018-04-02T22:20:03.470Z,100101.70
2018-04-02T22:22:29.687Z,100093.82
2018-04-02T22:24:55.849Z,100086.86
2018-04-02T22:27:22.019Z,100082.00
2018-04-02T22:29:48.561Z,100083.33
2018-04-02T22:32:14.757Z,100075.39
2018-04-02T22:34:40.948Z,100082.84
2018-04-02T22:37:07.224Z,100080.25
2018-04-02T22:39:33.404Z,100087.31
2018-04-02T22:41:59.906Z,100082.56
2018-04-02T22:44:26.161Z,100086.48
2018-04-02T22:46:52.327Z,100071.23
2018-04-02T22:49:18.557Z,100073.94
2018-04-02T22:51:44.781Z,100073.13
2018-04-02T22:54:11.255Z,100071.37
2018-04-02T22:56:37.443Z,100066.17
2018-04-02T22:59:03.630Z,100071.37
2018-04-02T23:01:29.841Z,100070.88
2018-04-02T23:03:56.079Z,100076.09
2018-04-02T23:06:22.317Z,100067.78
2018-04-02T23:08:48.773Z,100063.39
2018-04-02T23:11:15.362Z,100067.78
2018-04-02T23:13:41.540Z,100071.31
2018-04-02T23:16:07.702Z,100064.77
2018-04-02T23:18:33.927Z,100060.39
2018-04-02T23:21:00.132Z,100060.82
2018-04-02T23:23:26.608Z,100055.18
2018-04-02T23:25:52.787Z,100049.88
2018-04-02T23:28:19.065Z,100049.88
2018-04-02T23:30:45.599Z,100055.55
2018-04-02T23:33:12.148Z,100052.02
2018-04-02T23:35:38.315Z,100056.92
2018-04-02T23:38:04.501Z,100049.05
2018-04-02T23:40:30.799Z,100041.60
2018-04-02T23:42:56.999Z,100045.06
2018-04-02T23:45:23.252Z,100040.29
2018-04-02T23:47:49.498Z,100034.55
2018-04-02T23:50:15.671Z,100034.99
2018-04-02T23:52:42.164Z,100033.29
2018-04-02T23:55:08.346Z,100025.80
2018-04-02T23:57:34.556Z,100027.50
